Map

Track Data

SID SEASON NUMBER BASIN SUBBASIN NAME ISO_TIME NATURE LAT LON WMO_WIND WMO_PRES WMO_AGENCY TRACK_TYPE DIST2LAND LANDFALL IFLAG USA_AGENCY USA_ATCF_ID USA_LAT USA_LON USA_RECORD USA_STATUS USA_WIND USA_PRES USA_SSHS USA_R34_NE USA_R34_SE USA_R34_SW USA_R34_NW USA_R50_NE USA_R50_SE USA_R50_SW USA_R50_NW USA_R64_NE USA_R64_SE USA_R64_SW USA_R64_NW USA_POCI USA_ROCI USA_RMW USA_EYE TOKYO_LAT TOKYO_LON TOKYO_GRADE TOKYO_WIND TOKYO_PRES TOKYO_R50_DIR TOKYO_R50_LONG TOKYO_R50_SHORT TOKYO_R30_DIR TOKYO_R30_LONG TOKYO_R30_SHORT TOKYO_LAND CMA_LAT CMA_LON CMA_CAT CMA_WIND CMA_PRES HKO_LAT HKO_LON HKO_CAT HKO_WIND HKO_PRES NEWDELHI_LAT NEWDELHI_LON NEWDELHI_GRADE NEWDELHI_WIND NEWDELHI_PRES NEWDELHI_CI NEWDELHI_DP NEWDELHI_POCI REUNION_LAT REUNION_LON REUNION_TYPE REUNION_WIND REUNION_PRES REUNION_TNUM REUNION_CI REUNION_RMW REUNION_R34_NE REUNION_R34_SE REUNION_R34_SW REUNION_R34_NW REUNION_R50_NE REUNION_R50_SE REUNION_R50_SW REUNION_R50_NW REUNION_R64_NE REUNION_R64_SE REUNION_R64_SW REUNION_R64_NW BOM_LAT BOM_LON BOM_TYPE BOM_WIND BOM_PRES BOM_TNUM BOM_CI BOM_RMW BOM_R34_NE BOM_R34_SE BOM_R34_SW BOM_R34_NW BOM_R50_NE BOM_R50_SE BOM_R50_SW BOM_R50_NW BOM_R64_NE BOM_R64_SE BOM_R64_SW BOM_R64_NW BOM_ROCI BOM_POCI BOM_EYE BOM_POS_METHOD BOM_PRES_METHOD NADI_LAT NADI_LON NADI_CAT NADI_WIND NADI_PRES WELLINGTON_LAT WELLINGTON_LON WELLINGTON_WIND WELLINGTON_PRES DS824_LAT DS824_LON DS824_STAGE DS824_WIND DS824_PRES TD9636_LAT TD9636_LON TD9636_STAGE TD9636_WIND TD9636_PRES TD9635_LAT TD9635_LON TD9635_WIND TD9635_PRES TD9635_ROCI NEUMANN_LAT NEUMANN_LON NEUMANN_CLASS NEUMANN_WIND NEUMANN_PRES MLC_LAT MLC_LON MLC_CLASS MLC_WIND MLC_PRES USA_GUST BOM_GUST BOM_GUST_PER REUNION_GUST REUNION_GUST_PER USA_SEAHGT USA_SEARAD_NE USA_SEARAD_SE USA_SEARAD_SW USA_SEARAD_NW STORM_SPEED STORM_DIR
1935080S21039 1935 18 SI MM NOT_NAMED 1935-03-20 18:00:00 NR -21.4000 38.6000 main 332 332 __________O___ -1 -21.4000 38.6000 7 1 114
1935080S21039 1935 18 SI MM NOT_NAMED 1935-03-20 21:00:00 NR -21.4324 38.6710 main 342 339 __________P___ -1 -21.4324 38.6710 7 2 120
1935080S21039 1935 18 SI MM NOT_NAMED 1935-03-21 00:00:00 NR -21.4919 38.7736 main 349 349 __________P___ -1 -21.4919 38.7736 7 3 125
1935080S21039 1935 18 SI MM NOT_NAMED 1935-03-21 03:00:00 NR -21.6055 38.9392 main 357 357 __________P___ -1 -21.6055 38.9392 7 5 128
1935080S21039 1935 18 SI MM NOT_NAMED 1935-03-21 06:00:00 TS -21.8000 39.2000 main 383 370 _________OO___ -1 -21.8000 39.2000 TC 25 -21.8000 39.2000 1 8 128
1935080S21039 1935 18 SI MM NOT_NAMED 1935-03-21 09:00:00 TS -22.1084 39.6218 main 370 318 _________PP___ -1 -22.1404 39.7120 TC 25 -22.0924 39.5768 1 11 129
1935080S21039 1935 18 SI MM NOT_NAMED 1935-03-21 12:00:00 TS -22.4775 40.1109 main 319 272 _________OP___ -1 -22.5000 40.2000 TC 25 -22.4607 40.0441 1 12 130
1935080S21039 1935 18 SI MM NOT_NAMED 1935-03-21 15:00:00 TS -22.8829 40.6074 main 275 241 _________PP___ -1 -22.8922 40.6503 TC 25 -22.8735 40.5646 1 12 132
1935080S21039 1935 18 SI MM NOT_NAMED 1935-03-21 18:00:00 TS -23.3000 41.1000 main 241 203 _________OO___ -1 -23.3000 41.1000 TC 25 -23.3000 41.1000 1 12 132
1935080S21039 1935 18 SI MM NOT_NAMED 1935-03-21 21:00:00 TS -23.7065 41.6008 main 203 158 _________PP___ -1 -23.6999 41.5927 TC 25 -23.7131 41.6088 1 12 131
1935080S21039 1935 18 SI MM NOT_NAMED 1935-03-22 00:00:00 TS -24.1150 42.1110 main 158 120 _________OP___ -1 -24.1000 42.1000 TC 25 -24.1300 42.1220 1 12 131
1935080S21039 1935 18 SI MM NOT_NAMED 1935-03-22 03:00:00 TS -24.5234 42.6197 main 120 78 _________PP___ -1 -24.5150 42.6150 TC 25 -24.5319 42.6244 1 12 131
1935080S21039 1935 18 SI MM NOT_NAMED 1935-03-22 06:00:00 TS -24.9000 43.1000 main 78 55 _________OO___ -1 -24.9000 43.1000 TC 25 -24.9000 43.1000 1 11 130
1935080S21039 1935 18 SI MM NOT_NAMED 1935-03-22 09:00:00 TS -25.2163 43.5268 main 55 45 _________PP___ -1 -25.2223 43.5154 TC 25 -25.2103 43.5382 1 10 129
1935080S21039 1935 18 SI MM NOT_NAMED 1935-03-22 12:00:00 TS -25.4934 43.9233 main 53 45 _________OP___ -1 -25.5000 43.9000 TC 25 -25.4867 43.9467 1 9 127
1935080S21039 1935 18 SI MM NOT_NAMED 1935-03-22 15:00:00 TS -25.7511 44.3197 main 56 55 _________PP___ -1 -25.7574 44.3077 TC 25 -25.7448 44.3317 1 9 126
1935080S21039 1935 18 SI MM NOT_NAMED 1935-03-22 18:00:00 TS -26.0000 44.7000 main 63 59 _________OO___ -1 -26.0000 44.7000 TC 25 -26.0000 44.7000 1 8 127
1935080S21039 1935 18 SI MM NOT_NAMED 1935-03-22 21:00:00 TS -26.2480 45.0457 main 69 69 _________PP___ -1 -26.2424 45.0578 TC 25 -26.2536 45.0337 1 8 130
1935080S21039 1935 18 SI MM NOT_NAMED 1935-03-23 00:00:00 TS -26.5055 45.3789 main 100 100 _________OP___ -1 -26.5000 45.4000 TC 25 -26.5109 45.3578 1 8 132
1935080S21039 1935 18 SI MM NOT_NAMED 1935-03-23 03:00:00 TS -26.7825 45.7117 main 135 135 _________PP___ -1 -26.7772 45.7206 TC 25 -26.7878 45.7029 1 9 133
1935080S21039 1935 18 SI MM NOT_NAMED 1935-03-23 06:00:00 TS -27.1000 46.1000 main 177 177 _________OO___ -1 -27.1000 46.1000 TC 25 -27.1000 46.1000 1 10 131
1935080S21039 1935 18 SI MM NOT_NAMED 1935-03-23 09:00:00 TS -27.4724 46.5963 main 238 238 _________PP___ -1 -27.4851 46.6199 TC 25 -27.4598 46.5726 1 12 130
1935080S21039 1935 18 SI MM NOT_NAMED 1935-03-23 12:00:00 TS -27.8772 47.1517 main 304 304 _________OP___ -1 -27.9000 47.2000 TC 25 -27.8545 47.1034 1 13 129
1935080S21039 1935 18 SI MM NOT_NAMED 1935-03-23 15:00:00 TS -28.2820 47.7091 main 357 357 _________PP___ -1 -28.2921 47.7357 TC 25 -28.2719 47.6825 1 13 129
1935080S21039 1935 18 SI MM NOT_NAMED 1935-03-23 18:00:00 TS -28.7000 48.3000 main 418 418 _________OO___ -1 -28.7000 48.3000 TC 25 -28.7000 48.3000 1 14 128
1935080S21039 1935 18 SI MM NOT_NAMED 1935-03-23 21:00:00 TS -29.1445 48.9550 main 486 486 _________PP___ -1 -29.1498 48.9277 TC 25 -29.1393 48.9823 1 15 127
1935080S21039 1935 18 SI MM NOT_NAMED 1935-03-24 00:00:00 TS -29.5909 49.6464 main 563 563 _________OP___ -1 -29.6000 49.6000 TC 25 -29.5818 49.6927 1 15 125
1935080S21039 1935 18 SI MM NOT_NAMED 1935-03-24 03:00:00 TS -30.0155 50.3597 main 641 641 _________PP___ -1 -30.0228 50.3373 TC 25 -30.0082 50.3822 1 14 125
1935080S21039 1935 18 SI MM NOT_NAMED 1935-03-24 06:00:00 TS -30.4000 51.0000 main 710 710 _________OO___ -1 -30.4000 51.0000 TC 25 -30.4000 51.0000 1 12 127
1935080S21039 1935 18 SI MM NOT_NAMED 1935-03-24 09:00:00 TS -30.7240 51.4580 main 765 765 _________PP___ -1 -30.7143 51.4459 TC 25 -30.7337 51.4701 1 9 131
1935080S21039 1935 18 SI MM NOT_NAMED 1935-03-24 12:00:00 TS -31.0173 51.8321 main 809 809 _________OP___ -1 -31.0000 51.8000 TC 25 -31.0346 51.8642 1 9 132
1935080S21039 1935 18 SI MM NOT_NAMED 1935-03-24 15:00:00 TS -31.3091 52.2094 main 858 858 _________PP___ -1 -31.2998 52.1928 TC 25 -31.3184 52.2259 1 9 132
1935080S21039 1935 18 SI MM NOT_NAMED 1935-03-24 18:00:00 TS -31.6000 52.6000 main 908 908 _________OO___ -1 -31.6000 52.6000 TC 25 -31.6000 52.6000 1 9 130
1935080S21039 1935 18 SI MM NOT_NAMED 1935-03-24 21:00:00 TS -31.8956 53.0389 main 958 958 _________PP___ -1 -31.8998 53.0353 TC 25 -31.8914 53.0425 1 10 128
1935080S21039 1935 18 SI MM NOT_NAMED 1935-03-25 00:00:00 TS -32.1921 53.5034 main 1014 1014 _________OP___ -1 -32.2000 53.5000 TC 25 -32.1843 53.5069 1 10 126
1935080S21039 1935 18 SI MM NOT_NAMED 1935-03-25 03:00:00 TS -32.4886 53.9891 main 1070 1070 _________PP___ -1 -32.4923 53.9855 TC 25 -32.4850 53.9928 1 10 126
1935080S21039 1935 18 SI MM NOT_NAMED 1935-03-25 06:00:00 TS -32.8000 54.5000 main 1126 1126 _________OO___ -1 -32.8000 54.5000 TC 25 -32.8000 54.5000 1 11 127
1935080S21039 1935 18 SI MM NOT_NAMED 1935-03-25 09:00:00 TS -33.1471 55.0414 main 1182 1182 _________PP___ -1 -33.1424 55.0427 TC 25 -33.1519 55.0401 1 12 128
1935080S21039 1935 18 SI MM NOT_NAMED 1935-03-25 12:00:00 TS -33.5076 55.5995 main 1252 1252 _________OP___ -1 -33.5000 55.6000 TC 25 -33.5152 55.5991 1 12 128
1935080S21039 1935 18 SI MM NOT_NAMED 1935-03-25 15:00:00 TS -33.8678 56.1619 main 1323 1323 _________PP___ -1 -33.8649 56.1650 TC 25 -33.8707 56.1588 1 11 127
1935080S21039 1935 18 SI MM NOT_NAMED 1935-03-25 18:00:00 TS -34.2000 56.7000 main 1379 1379 _________OO___ -1 -34.2000 56.7000 TC 25 -34.2000 56.7000 1 10 126
1935080S21039 1935 18 SI MM NOT_NAMED 1935-03-25 21:00:00 TS -34.4771 57.1830 main 1435 1435 _________PP___ -1 -34.4646 57.1582 TC 25 -34.4896 57.2078 1 9 124
1935080S21039 1935 18 SI MM NOT_NAMED 1935-03-26 00:00:00 TS -34.7228 57.6435 main 1477 1477 _________OP___ -1 -34.7000 57.6000 TC 25 -34.7456 57.6871 1 9 122
1935080S21039 1935 18 SI MM NOT_NAMED 1935-03-26 03:00:00 TS -34.9622 58.1159 main 1533 1533 _________PP___ -1 -34.9456 58.0841 TC 25 -34.9789 58.1477 1 9 121
1935080S21039 1935 18 SI MM NOT_NAMED 1935-03-26 06:00:00 TS -35.2000 58.6000 main 1568 _________OO___ -1 -35.2000 58.6000 TC 25 -35.2000 58.6000 1 9 121

About IBTrACS Database

This database is a web-friendly format of International Best Track Archive for Climate Stewardship (IBTrACS), a global best track data archive curated by NOAA dating back to 1842.

Updated: 2021-12-06